createdAt,value
2023-01-17T00:07:52.644Z,45.78
2023-01-17T00:17:59.840Z,45.74
2023-01-17T00:28:06.958Z,45.73
2023-01-17T00:38:13.772Z,45.65
2023-01-17T00:48:20.948Z,45.67
2023-01-17T00:58:28.045Z,45.64
2023-01-17T01:08:35.290Z,45.49
2023-01-17T01:18:42.250Z,45.38
2023-01-17T01:28:49.442Z,45.28
2023-01-17T01:38:56.254Z,45.38
2023-01-17T01:49:03.329Z,45.27
2023-01-17T01:59:10.413Z,45.21
2023-01-17T02:09:17.411Z,45.25
2023-01-17T02:19:24.337Z,45.20
2023-01-17T02:29:31.267Z,45.16
2023-01-17T02:39:38.329Z,45.20
2023-01-17T02:49:45.474Z,45.18
2023-01-17T02:59:52.397Z,45.08
2023-01-17T03:09:59.434Z,45.09
2023-01-17T03:20:06.538Z,45.02
2023-01-17T03:30:14.171Z,44.99
2023-01-17T03:40:20.746Z,45.09
2023-01-17T03:50:28.069Z,45.03
2023-01-17T04:00:35.056Z,45.00
2023-01-17T04:10:42.198Z,44.97
2023-01-17T04:20:49.248Z,44.97
2023-01-17T04:30:56.345Z,45.05
2023-01-17T04:41:03.498Z,44.98
2023-01-17T04:51:10.230Z,44.95
2023-01-17T05:01:17.505Z,45.08
2023-01-17T05:11:25.267Z,45.02
2023-01-17T05:21:32.121Z,45.04
2023-01-17T05:31:39.091Z,45.32
2023-01-17T05:41:46.211Z,45.48
2023-01-17T05:51:54.939Z,45.62
2023-01-17T06:02:02.867Z,46.05
2023-01-17T06:12:10.187Z,47.08
2023-01-17T06:22:17.523Z,47.43
2023-01-17T06:32:24.504Z,47.67
2023-01-17T06:42:31.409Z,47.84
2023-01-17T06:52:38.582Z,47.70
2023-01-17T07:02:46.750Z,47.63
2023-01-17T07:12:53.508Z,47.73
2023-01-17T07:23:01.219Z,47.73
2023-01-17T07:33:09.000Z,47.68
2023-01-17T07:43:15.597Z,47.59
2023-01-17T07:53:22.811Z,47.62
2023-01-17T08:03:29.774Z,47.50
2023-01-17T08:13:37.106Z,46.61
2023-01-17T08:23:44.014Z,43.78
2023-01-17T08:33:51.138Z,37.75
2023-01-17T08:43:57.279Z,43.76
2023-01-17T08:54:05.301Z,45.71
2023-01-17T09:04:12.331Z,45.62
2023-01-17T09:14:19.102Z,45.30
2023-01-17T09:24:26.306Z,43.04
2023-01-17T09:34:33.477Z,44.47
2023-01-17T09:44:41.135Z,43.30
2023-01-17T09:54:48.032Z,41.62
2023-01-17T10:04:55.408Z,41.58
2023-01-17T10:15:02.513Z,43.12
2023-01-17T10:25:09.440Z,41.83
2023-01-17T10:35:16.482Z,44.03
2023-01-17T10:45:23.869Z,43.26
2023-01-17T10:55:31.535Z,43.39
2023-01-17T11:05:38.624Z,41.72
2023-01-17T11:15:45.449Z,42.60
2023-01-17T11:25:52.677Z,44.12
2023-01-17T11:36:00.116Z,44.59
2023-01-17T11:46:07.122Z,44.70
2023-01-17T11:56:14.597Z,44.98
2023-01-17T12:06:21.805Z,44.98
2023-01-17T12:16:29.236Z,44.82
2023-01-17T12:26:36.270Z,39.10
2023-01-17T12:36:42.897Z,44.14
2023-01-17T12:46:50.209Z,45.32
2023-01-17T12:56:59.956Z,45.49
2023-01-17T13:07:06.988Z,45.67
2023-01-17T13:17:14.364Z,46.02
2023-01-17T13:27:21.590Z,46.27
2023-01-17T13:37:29.166Z,45.35
2023-01-17T13:47:35.121Z,45.81
2023-01-17T13:57:42.337Z,44.70
2023-01-17T14:07:49.522Z,44.84
2023-01-17T14:17:56.749Z,43.80
2023-01-17T14:28:03.500Z,43.56
2023-01-17T14:38:10.619Z,42.53
2023-01-17T14:48:17.538Z,42.59
2023-01-17T14:58:24.978Z,43.29
2023-01-17T15:08:31.951Z,42.93
2023-01-17T15:18:38.465Z,44.03
2023-01-17T15:28:46.059Z,44.37
2023-01-17T15:38:52.675Z,44.64
2023-01-17T15:48:58.723Z,40.91
2023-01-17T15:59:05.070Z,43.21
2023-01-17T16:09:11.965Z,41.69
2023-01-17T16:19:19.347Z,44.06
2023-01-17T16:29:26.167Z,45.13
2023-01-17T16:39:33.383Z,45.58
2023-01-17T16:49:40.380Z,45.61
2023-01-17T16:59:50.867Z,45.79
2023-01-17T17:09:58.776Z,45.84
2023-01-17T17:20:05.322Z,45.93
2023-01-17T17:30:12.335Z,45.95
2023-01-17T17:40:19.411Z,46.05
2023-01-17T17:50:25.718Z,45.85
2023-01-17T18:00:32.708Z,45.87
2023-01-17T18:10:39.713Z,47.11
2023-01-17T18:20:46.574Z,47.29
2023-01-17T18:30:53.397Z,46.99
2023-01-17T18:41:00.635Z,46.79
2023-01-17T18:51:07.519Z,46.71
2023-01-17T19:01:14.637Z,46.53
2023-01-17T19:11:21.550Z,46.38
2023-01-17T19:21:27.865Z,46.22
2023-01-17T19:31:34.990Z,46.17
2023-01-17T19:41:41.937Z,45.96
2023-01-17T19:51:48.861Z,45.90
2023-01-17T20:01:56.308Z,45.79
2023-01-17T20:12:03.478Z,45.77
2023-01-17T20:22:10.031Z,45.56
2023-01-17T20:32:17.053Z,45.54
2023-01-17T20:42:24.585Z,45.37
2023-01-17T20:52:31.157Z,45.50
2023-01-17T21:02:38.605Z,45.25
2023-01-17T21:12:46.175Z,45.29
2023-01-17T21:22:53.503Z,45.24
2023-01-17T21:33:00.462Z,45.08
2023-01-17T21:43:07.703Z,45.15
2023-01-17T21:53:14.470Z,44.95
2023-01-17T22:03:21.297Z,45.02
2023-01-17T22:13:28.570Z,44.82
2023-01-17T22:23:35.647Z,44.77
2023-01-17T22:33:42.490Z,44.72
2023-01-17T22:43:49.974Z,44.70
2023-01-17T22:53:58.043Z,44.69
2023-01-17T23:04:04.867Z,44.57
2023-01-17T23:14:12.208Z,44.56
2023-01-17T23:24:19.400Z,44.28
2023-01-17T23:34:25.984Z,44.16
2023-01-17T23:44:32.873Z,43.91
2023-01-17T23:54:40.166Z,43.89
